createdAt,value
2022-08-26T00:01:31.196Z,8.52
2022-08-26T00:04:17.833Z,7.10
2022-08-26T00:07:05.677Z,7.65
2022-08-26T00:09:54.395Z,6.45
2022-08-26T00:12:42.569Z,7.55
2022-08-26T00:15:28.462Z,6.28
2022-08-26T00:18:22.049Z,8.70
2022-08-26T00:21:09.915Z,6.57
2022-08-26T00:23:56.979Z,7.30
2022-08-26T00:26:43.959Z,10.75
2022-08-26T00:29:32.112Z,8.45
2022-08-26T00:32:21.527Z,7.88
2022-08-26T00:35:08.983Z,8.20
2022-08-26T00:37:56.767Z,10.20
2022-08-26T00:40:50.366Z,8.18
2022-08-26T00:43:47.539Z,7.40
2022-08-26T00:46:38.908Z,10.85
2022-08-26T00:49:42.878Z,8.70
2022-08-26T00:52:29.836Z,8.23
2022-08-26T00:55:37.820Z,10.32
2022-08-26T00:58:26.714Z,8.50
2022-08-26T01:01:14.354Z,8.55
2022-08-26T01:04:01.138Z,8.48
2022-08-26T01:06:50.118Z,12.60
2022-08-26T01:09:36.861Z,8.15
2022-08-26T01:12:28.179Z,7.53
2022-08-26T01:15:19.699Z,8.70
2022-08-26T01:18:07.994Z,8.77
2022-08-26T01:21:26.063Z,9.07
2022-08-26T01:24:13.973Z,9.03
2022-08-26T01:27:05.700Z,9.65
2022-08-26T01:29:55.041Z,8.43
2022-08-26T01:32:42.184Z,9.05
2022-08-26T01:35:29.386Z,9.88
2022-08-26T01:38:17.044Z,12.43
2022-08-26T01:41:16.067Z,7.80
2022-08-26T01:44:04.980Z,10.82
2022-08-26T01:46:53.668Z,9.57
2022-08-26T01:49:41.039Z,9.25
2022-08-26T01:52:30.137Z,8.40
2022-08-26T01:55:32.152Z,9.53
2022-08-26T01:58:30.642Z,8.32
2022-08-26T02:01:16.924Z,10.90
2022-08-26T02:04:11.143Z,8.95
2022-08-26T02:06:57.906Z,10.65
2022-08-26T02:09:45.407Z,8.57
2022-08-26T02:12:32.160Z,8.90
2022-08-26T02:15:18.115Z,8.65
2022-08-26T02:18:08.059Z,8.70
2022-08-26T02:21:00.715Z,7.90
2022-08-26T02:23:47.700Z,8.77
2022-08-26T02:26:34.884Z,7.75
2022-08-26T02:29:28.014Z,9.55
2022-08-26T02:32:14.638Z,7.45
2022-08-26T02:35:05.764Z,8.68
2022-08-26T02:37:53.155Z,7.10
2022-08-26T02:40:42.281Z,14.32
2022-08-26T02:43:32.910Z,11.38
2022-08-26T02:46:27.955Z,8.00
2022-08-26T02:49:17.375Z,7.90
2022-08-26T02:52:03.811Z,8.82
2022-08-26T02:54:49.747Z,6.72
2022-08-26T02:57:36.642Z,6.82
2022-08-26T03:00:24.417Z,8.10
2022-08-26T03:03:12.230Z,5.97
2022-08-26T03:05:58.323Z,6.18
2022-08-26T03:08:44.727Z,5.47
2022-08-26T03:11:33.201Z,5.43
2022-08-26T03:14:19.574Z,5.72
2022-08-26T03:17:06.077Z,4.70
2022-08-26T03:19:57.015Z,4.32
2022-08-26T03:22:43.790Z,3.03
2022-08-26T03:25:30.866Z,3.27
2022-08-26T03:28:19.283Z,3.63
2022-08-26T03:31:05.863Z,6.93
2022-08-26T03:33:55.559Z,5.20
2022-08-26T03:36:43.705Z,3.28
2022-08-26T03:39:31.556Z,3.40
2022-08-26T03:42:21.514Z,4.60
2022-08-26T03:45:10.719Z,3.42
2022-08-26T03:48:00.353Z,4.17
2022-08-26T03:50:47.717Z,4.85
2022-08-26T03:53:35.348Z,3.78
2022-08-26T03:56:23.387Z,5.23
2022-08-26T03:59:10.554Z,4.45
2022-08-26T04:01:56.950Z,3.75
2022-08-26T04:04:43.773Z,4.35
2022-08-26T04:07:29.820Z,4.18
2022-08-26T04:10:28.707Z,3.72
2022-08-26T04:13:15.936Z,4.53
2022-08-26T04:16:02.839Z,4.57
2022-08-26T04:18:49.698Z,3.85
2022-08-26T04:21:38.352Z,4.15
2022-08-26T04:24:27.109Z,4.20
2022-08-26T04:27:13.689Z,5.10
2022-08-26T04:29:59.762Z,5.80
2022-08-26T04:32:46.630Z,4.97
2022-08-26T04:35:32.712Z,4.80
2022-08-26T04:38:20.033Z,5.22
2022-08-26T04:41:15.678Z,7.63
2022-08-26T04:44:03.817Z,6.25
2022-08-26T04:46:50.033Z,5.85
2022-08-26T04:49:35.750Z,5.47
2022-08-26T04:52:22.431Z,5.53
2022-08-26T04:55:10.291Z,6.40
2022-08-26T04:57:57.077Z,9.90
2022-08-26T05:00:47.188Z,5.10
2022-08-26T05:03:32.951Z,5.28
2022-08-26T05:06:20.629Z,6.00
2022-08-26T05:09:07.752Z,5.68
2022-08-26T05:11:54.008Z,5.32
2022-08-26T05:14:41.517Z,7.20
2022-08-26T05:17:27.309Z,6.60
2022-08-26T05:20:14.373Z,5.13
2022-08-26T05:23:02.675Z,7.45
2022-08-26T05:25:50.718Z,5.63
2022-08-26T05:28:36.660Z,6.80
2022-08-26T05:31:31.677Z,8.53
2022-08-26T05:34:18.013Z,6.22
2022-08-26T05:37:06.915Z,8.30
2022-08-26T05:39:53.292Z,7.05
2022-08-26T05:42:39.417Z,5.15
2022-08-26T05:45:26.621Z,6.00
2022-08-26T05:48:14.380Z,6.38
2022-08-26T05:51:05.019Z,4.80
2022-08-26T05:53:54.646Z,5.97
2022-08-26T05:56:40.712Z,6.07
2022-08-26T05:59:29.550Z,6.13
2022-08-26T06:02:18.921Z,6.97
2022-08-26T06:05:07.748Z,5.70
2022-08-26T06:08:11.719Z,6.65
2022-08-26T06:11:01.051Z,6.63
2022-08-26T06:13:47.863Z,6.32
2022-08-26T06:16:38.300Z,7.57
2022-08-26T06:19:24.087Z,9.13
2022-08-26T06:22:30.372Z,6.72
2022-08-26T06:25:36.427Z,6.75
2022-08-26T06:28:24.554Z,9.68
2022-08-26T06:31:11.049Z,9.93
2022-08-26T06:33:58.280Z,8.10
2022-08-26T06:36:44.889Z,7.72
2022-08-26T06:39:32.277Z,6.85
2022-08-26T06:42:18.200Z,7.13
2022-08-26T06:45:05.829Z,8.50
2022-08-26T06:47:52.809Z,7.72
2022-08-26T06:50:39.321Z,6.65
2022-08-26T06:53:27.987Z,8.18
2022-08-26T06:56:18.237Z,9.70
2022-08-26T06:59:05.019Z,9.05
2022-08-26T07:01:54.912Z,8.60
2022-08-26T07:04:42.049Z,8.77
2022-08-26T07:07:29.585Z,8.97
2022-08-26T07:10:15.831Z,9.80
2022-08-26T07:13:01.806Z,6.90
2022-08-26T07:15:49.509Z,6.63
2022-08-26T07:18:47.613Z,8.60
2022-08-26T07:21:36.816Z,8.00
2022-08-26T07:24:22.684Z,7.43
2022-08-26T07:27:13.230Z,7.88
2022-08-26T07:29:59.774Z,6.23
2022-08-26T07:32:48.614Z,8.10
2022-08-26T07:35:35.439Z,6.47
2022-08-26T07:38:21.824Z,7.18
2022-08-26T07:41:09.008Z,6.43
2022-08-26T07:43:54.963Z,7.28
2022-08-26T07:46:44.103Z,6.38
2022-08-26T07:49:31.311Z,7.78
2022-08-26T07:52:17.185Z,5.75
2022-08-26T07:55:11.264Z,8.95
2022-08-26T07:57:58.103Z,5.95
2022-08-26T08:00:45.910Z,6.43
2022-08-26T08:03:32.379Z,6.35
2022-08-26T08:06:21.475Z,6.38
2022-08-26T08:09:08.179Z,5.18
2022-08-26T08:11:54.641Z,5.97
2022-08-26T08:14:40.620Z,5.72
2022-08-26T08:17:28.060Z,6.60
2022-08-26T08:20:15.312Z,7.82
2022-08-26T08:23:04.355Z,7.93
2022-08-26T08:25:50.933Z,6.75
2022-08-26T08:28:38.490Z,7.18
2022-08-26T08:34:33.493Z,6.35
2022-08-26T08:37:19.618Z,6.97
2022-08-26T08:40:08.002Z,7.28
2022-08-26T08:43:06.455Z,9.57
2022-08-26T08:45:59.810Z,7.28
2022-08-26T08:48:51.480Z,9.25
2022-08-26T08:51:52.145Z,6.05
2022-08-26T08:54:38.762Z,5.30
2022-08-26T08:57:46.178Z,6.82
2022-08-26T09:00:49.210Z,5.80
2022-08-26T09:03:55.102Z,6.72
2022-08-26T09:06:41.454Z,6.07
2022-08-26T09:09:38.736Z,5.70
2022-08-26T09:12:29.910Z,4.57
2022-08-26T09:15:25.438Z,4.63
2022-08-26T09:18:21.719Z,4.78
2022-08-26T09:21:14.760Z,6.28
2022-08-26T09:24:00.858Z,5.32
2022-08-26T09:26:48.040Z,4.70
2022-08-26T09:29:43.027Z,5.05
2022-08-26T09:32:30.582Z,3.47
2022-08-26T09:35:32.482Z,4.28
2022-08-26T09:38:32.798Z,3.58
2022-08-26T09:41:31.760Z,5.75
2022-08-26T09:44:19.576Z,3.22
2022-08-26T09:47:09.577Z,3.85
2022-08-26T09:50:09.402Z,3.90
2022-08-26T09:53:12.970Z,3.60
2022-08-26T09:56:25.283Z,3.53
2022-08-26T09:59:12.437Z,5.60
2022-08-26T10:02:29.915Z,6.13
2022-08-26T10:05:27.691Z,3.28
2022-08-26T10:08:28.104Z,4.30
2022-08-26T10:11:37.542Z,3.58
2022-08-26T10:14:33.467Z,4.63
2022-08-26T10:17:35.992Z,4.13
2022-08-26T10:20:29.175Z,5.80
2022-08-26T10:23:19.800Z,4.30
2022-08-26T10:26:35.737Z,4.45
2022-08-26T10:29:29.504Z,4.50
2022-08-26T10:32:40.848Z,5.20
2022-08-26T10:35:29.032Z,3.92
2022-08-26T10:38:18.713Z,3.92
2022-08-26T10:41:13.057Z,2.95
2022-08-26T10:44:02.873Z,2.63
2022-08-26T10:46:59.574Z,6.20
2022-08-26T10:50:14.781Z,2.65
2022-08-26T10:53:32.891Z,3.40
2022-08-26T10:56:46.580Z,4.18
2022-08-26T10:59:43.791Z,3.15
2022-08-26T11:02:41.806Z,5.32
2022-08-26T11:05:33.357Z,3.10
2022-08-26T11:08:22.507Z,1.90
2022-08-26T11:11:10.408Z,3.03
2022-08-26T11:14:29.332Z,3.00
2022-08-26T11:17:46.264Z,2.60
2022-08-26T11:20:37.074Z,2.45
2022-08-26T11:23:27.886Z,2.87
2022-08-26T11:26:35.975Z,2.93
2022-08-26T11:30:00.375Z,2.10
2022-08-26T11:32:50.926Z,1.52
2022-08-26T11:35:37.547Z,2.30
2022-08-26T11:38:29.313Z,2.58
2022-08-26T11:41:21.808Z,3.72
2022-08-26T11:44:09.236Z,3.35
2022-08-26T11:47:00.891Z,2.28
2022-08-26T11:49:46.905Z,2.55
2022-08-26T11:52:33.491Z,3.47
2022-08-26T11:55:20.289Z,2.22
2022-08-26T11:58:12.810Z,4.30
2022-08-26T12:01:09.830Z,2.65
2022-08-26T12:03:58.669Z,4.32
2022-08-26T12:06:51.206Z,3.33
2022-08-26T12:09:50.109Z,2.25
2022-08-26T12:12:39.380Z,4.88
2022-08-26T12:15:26.411Z,3.05
2022-08-26T12:18:29.421Z,3.08
2022-08-26T12:21:22.682Z,1.92
2022-08-26T12:24:10.658Z,3.40
2022-08-26T12:27:18.090Z,4.23
2022-08-26T12:30:06.876Z,2.45
2022-08-26T12:33:15.752Z,3.72
2022-08-26T12:36:09.592Z,6.53
2022-08-26T12:38:58.289Z,3.08
2022-08-26T12:41:46.991Z,2.70
2022-08-26T12:44:36.834Z,3.83
2022-08-26T12:47:42.819Z,3.08
2022-08-26T12:50:35.948Z,2.05
2022-08-26T12:53:32.902Z,2.20
2022-08-26T12:56:30.056Z,3.03
2022-08-26T12:59:25.283Z,2.22
2022-08-26T13:02:11.578Z,1.60
2022-08-26T13:05:00.856Z,2.77
2022-08-26T13:08:10.498Z,2.08
2022-08-26T13:11:10.276Z,1.80
2022-08-26T13:14:00.858Z,1.90
2022-08-26T13:16:49.352Z,2.60
2022-08-26T13:19:35.834Z,2.10
2022-08-26T13:22:24.597Z,3.03
2022-08-26T13:25:10.111Z,4.05
2022-08-26T13:27:55.717Z,3.50
2022-08-26T13:30:46.688Z,1.77
2022-08-26T13:33:33.606Z,2.72
2022-08-26T13:36:20.104Z,1.70
2022-08-26T13:39:06.971Z,2.47
2022-08-26T13:41:54.387Z,3.80
2022-08-26T13:44:43.096Z,2.77
2022-08-26T13:47:29.291Z,2.03
2022-08-26T13:50:15.845Z,3.53
2022-08-26T13:53:03.224Z,2.70
2022-08-26T13:55:50.148Z,1.92
2022-08-26T13:58:36.021Z,1.77
2022-08-26T14:01:21.580Z,3.33
2022-08-26T14:04:08.644Z,3.15
2022-08-26T14:06:55.086Z,2.85
2022-08-26T14:09:40.971Z,2.58
2022-08-26T14:12:27.268Z,2.03
2022-08-26T14:15:16.229Z,2.67
2022-08-26T14:18:04.937Z,4.95
2022-08-26T14:20:53.276Z,4.28
2022-08-26T14:23:40.116Z,3.50
2022-08-26T14:26:28.288Z,3.67
2022-08-26T14:29:16.802Z,1.87
2022-08-26T14:32:11.583Z,2.97
2022-08-26T14:34:57.816Z,2.38
2022-08-26T14:37:43.640Z,2.42
2022-08-26T14:40:33.899Z,1.52
2022-08-26T14:43:23.641Z,2.47
2022-08-26T14:46:10.271Z,1.20
2022-08-26T14:49:01.789Z,1.60
2022-08-26T14:51:49.815Z,2.90
2022-08-26T14:54:37.344Z,2.03
2022-08-26T14:57:23.836Z,1.65
2022-08-26T15:00:10.196Z,3.10
2022-08-26T15:02:57.200Z,2.78
2022-08-26T15:05:48.005Z,6.85
2022-08-26T15:08:36.598Z,1.55
2022-08-26T15:11:22.813Z,1.08
2022-08-26T15:14:08.489Z,2.23
2022-08-26T15:17:05.329Z,2.50
2022-08-26T15:19:51.882Z,1.40
2022-08-26T15:22:39.501Z,1.00
2022-08-26T15:25:25.612Z,2.30
2022-08-26T15:28:11.625Z,1.17
2022-08-26T15:30:57.800Z,1.65
2022-08-26T15:33:44.105Z,1.90
2022-08-26T15:36:31.804Z,2.88
2022-08-26T15:39:17.741Z,1.73
2022-08-26T15:42:04.113Z,2.37
2022-08-26T15:44:52.177Z,2.10
2022-08-26T15:48:00.756Z,3.00
2022-08-26T15:51:02.116Z,2.60
2022-08-26T15:53:47.620Z,1.60
2022-08-26T15:56:36.354Z,2.03
2022-08-26T15:59:23.016Z,4.47
2022-08-26T16:02:10.557Z,2.20
2022-08-26T16:04:56.033Z,2.60
2022-08-26T16:07:44.411Z,1.98
2022-08-26T16:10:31.251Z,2.30
2022-08-26T16:13:19.819Z,2.92
2022-08-26T16:16:06.786Z,1.30
2022-08-26T16:18:53.866Z,1.15
2022-08-26T16:21:41.259Z,1.08
2022-08-26T16:24:30.529Z,2.53
2022-08-26T16:27:17.226Z,3.13
2022-08-26T16:30:05.917Z,2.97
2022-08-26T16:32:52.100Z,2.50
2022-08-26T16:35:38.457Z,3.10
2022-08-26T16:38:24.633Z,3.75
2022-08-26T16:41:10.639Z,2.23
2022-08-26T16:43:57.820Z,2.47
2022-08-26T16:46:44.644Z,3.20
2022-08-26T16:49:30.732Z,2.28
2022-08-26T16:52:17.270Z,3.70
2022-08-26T16:55:06.907Z,6.45
2022-08-26T16:57:53.096Z,3.05
2022-08-26T17:00:39.450Z,3.15
2022-08-26T17:03:25.077Z,5.10
2022-08-26T17:06:13.011Z,1.95
2022-08-26T17:08:58.978Z,1.92
2022-08-26T17:11:45.208Z,2.47
2022-08-26T17:14:33.351Z,2.50
2022-08-26T17:17:19.611Z,1.92
2022-08-26T17:20:11.149Z,2.42
2022-08-26T17:22:57.460Z,3.80
2022-08-26T17:25:43.655Z,2.28
2022-08-26T17:28:30.320Z,2.50
2022-08-26T17:31:16.158Z,2.25
2022-08-26T17:34:02.116Z,3.07
2022-08-26T17:36:48.140Z,5.10
2022-08-26T17:39:37.091Z,5.55
2022-08-26T17:42:22.990Z,3.63
2022-08-26T17:48:07.220Z,3.33
2022-08-26T17:50:53.639Z,3.72
2022-08-26T17:53:40.218Z,3.75
2022-08-26T17:56:29.175Z,2.17
2022-08-26T17:59:15.483Z,3.70
2022-08-26T18:02:01.898Z,2.92
2022-08-26T18:04:48.763Z,4.43
2022-08-26T18:07:41.383Z,3.08
2022-08-26T18:10:31.310Z,2.50
2022-08-26T18:13:18.794Z,3.25
2022-08-26T18:16:06.706Z,4.13
2022-08-26T18:18:53.980Z,6.07
2022-08-26T18:21:39.708Z,5.17
2022-08-26T18:24:25.303Z,2.95
2022-08-26T18:27:11.310Z,6.38
2022-08-26T18:29:58.139Z,5.70
2022-08-26T18:32:45.115Z,3.28
2022-08-26T18:35:31.047Z,3.78
2022-08-26T18:38:17.933Z,3.20
2022-08-26T18:41:04.801Z,3.10
2022-08-26T18:43:53.088Z,2.58
2022-08-26T18:46:39.386Z,3.07
2022-08-26T18:49:25.871Z,4.20
2022-08-26T18:52:12.562Z,2.33
2022-08-26T18:54:59.401Z,3.00
2022-08-26T18:57:44.864Z,3.53
2022-08-26T19:00:31.617Z,4.15
2022-08-26T19:03:18.671Z,1.95
2022-08-26T19:06:05.156Z,2.28
2022-08-26T19:08:52.081Z,3.72
2022-08-26T19:11:43.161Z,3.47
2022-08-26T19:14:29.095Z,2.67
2022-08-26T19:17:15.683Z,1.87
2022-08-26T19:20:02.111Z,3.55
2022-08-26T19:22:48.125Z,3.60
2022-08-26T19:25:46.866Z,4.43
2022-08-26T19:28:33.033Z,3.03
2022-08-26T19:31:20.732Z,3.35
2022-08-26T19:34:07.381Z,2.00
2022-08-26T19:36:54.641Z,1.50
2022-08-26T19:39:41.068Z,3.58
2022-08-26T19:42:27.013Z,1.42
2022-08-26T19:45:24.825Z,2.47
2022-08-26T19:48:11.808Z,2.10
2022-08-26T19:50:58.040Z,2.25
2022-08-26T19:53:45.205Z,2.50
2022-08-26T19:56:32.151Z,2.10
2022-08-26T19:59:18.728Z,2.90
2022-08-26T20:02:08.640Z,2.15
2022-08-26T20:04:56.976Z,2.20
2022-08-26T20:07:43.173Z,1.90
2022-08-26T20:10:29.055Z,3.65
2022-08-26T20:13:15.411Z,4.93
2022-08-26T20:16:00.866Z,2.92
2022-08-26T20:19:05.079Z,3.10
2022-08-26T20:21:51.214Z,3.50
2022-08-26T20:24:37.742Z,3.50
2022-08-26T20:27:38.352Z,4.05
2022-08-26T20:30:24.709Z,3.15
2022-08-26T20:33:10.174Z,3.65
2022-08-26T20:35:56.646Z,5.60
2022-08-26T20:38:43.170Z,7.65
2022-08-26T20:41:29.147Z,5.60
2022-08-26T20:44:16.640Z,3.15
2022-08-26T20:47:03.078Z,4.15
2022-08-26T20:49:52.403Z,3.70
2022-08-26T20:52:38.571Z,3.85
2022-08-26T20:55:25.225Z,5.50
2022-08-26T20:58:11.295Z,5.75
2022-08-26T21:00:58.778Z,6.00
2022-08-26T21:03:45.553Z,5.63
2022-08-26T21:06:33.836Z,4.20
2022-08-26T21:09:20.764Z,5.85
2022-08-26T21:12:07.360Z,6.57
2022-08-26T21:14:53.498Z,4.95
2022-08-26T21:17:39.250Z,6.78
2022-08-26T21:20:25.605Z,4.45
2022-08-26T21:23:12.536Z,6.47
2022-08-26T21:26:03.320Z,3.90
2022-08-26T21:28:49.627Z,6.10
2022-08-26T21:31:36.998Z,5.43
2022-08-26T21:34:23.527Z,6.78
2022-08-26T21:37:16.334Z,6.72
2022-08-26T21:40:05.542Z,4.72
2022-08-26T21:42:51.786Z,7.40
2022-08-26T21:45:41.503Z,6.30
2022-08-26T21:48:33.178Z,8.57
2022-08-26T21:51:23.537Z,6.95
2022-08-26T21:54:11.393Z,6.35
2022-08-26T21:56:58.529Z,7.57
2022-08-26T21:59:44.100Z,6.00
2022-08-26T22:02:29.963Z,6.47
2022-08-26T22:05:16.339Z,5.47
2022-08-26T22:08:03.183Z,6.80
2022-08-26T22:10:53.001Z,6.50
2022-08-26T22:13:41.546Z,8.13
2022-08-26T22:16:28.762Z,7.20
2022-08-26T22:19:17.409Z,6.78
2022-08-26T22:22:03.646Z,5.93
2022-08-26T22:24:49.865Z,6.03
2022-08-26T22:27:40.392Z,6.47
2022-08-26T22:30:29.172Z,8.82
2022-08-26T22:33:16.671Z,10.35
2022-08-26T22:36:03.037Z,7.93
2022-08-26T22:38:50.438Z,5.85
2022-08-26T22:41:36.556Z,5.88
2022-08-26T22:44:23.329Z,6.80
2022-08-26T22:47:09.936Z,5.72
2022-08-26T22:49:55.521Z,9.10
2022-08-26T22:52:42.114Z,5.40
2022-08-26T22:55:28.088Z,8.13
2022-08-26T22:58:16.150Z,6.65
2022-08-26T23:01:03.646Z,5.85
2022-08-26T23:03:49.256Z,5.85
2022-08-26T23:06:37.661Z,3.38
2022-08-26T23:09:24.130Z,6.38
2022-08-26T23:12:11.016Z,3.58
2022-08-26T23:14:57.627Z,4.50
2022-08-26T23:17:43.042Z,3.90
2022-08-26T23:20:29.718Z,3.17
2022-08-26T23:23:15.185Z,5.20
2022-08-26T23:26:05.555Z,3.40
2022-08-26T23:28:53.175Z,6.15
2022-08-26T23:31:41.073Z,2.70
2022-08-26T23:34:46.142Z,3.03
2022-08-26T23:37:44.335Z,2.70
2022-08-26T23:40:34.311Z,3.65
2022-08-26T23:43:19.998Z,1.90
2022-08-26T23:46:06.638Z,2.90
2022-08-26T23:48:53.058Z,2.65
2022-08-26T23:51:57.248Z,3.58
2022-08-26T23:54:44.676Z,2.53
2022-08-26T23:57:30.490Z,2.40
